sensor_id;sensor_type;location;lat;lon;timestamp;P1;durP1;ratioP1;P2;durP2;ratioP2
3991;SDS011;2010;48.194;16.394;2023-02-17T00:02:23;66.50;;;36.30;;
3991;SDS011;2010;48.194;16.394;2023-02-17T00:04:55;66.57;;;35.93;;
3991;SDS011;2010;48.194;16.394;2023-02-17T00:07:24;65.20;;;35.73;;
3991;SDS011;2010;48.194;16.394;2023-02-17T00:09:58;68.67;;;36.47;;
3991;SDS011;2010;48.194;16.394;2023-02-17T00:12:32;64.67;;;33.67;;
3991;SDS011;2010;48.194;16.394;2023-02-17T00:15:01;70.23;;;36.87;;
3991;SDS011;2010;48.194;16.394;2023-02-17T00:17:33;70.13;;;35.20;;
3991;SDS011;2010;48.194;16.394;2023-02-17T00:20:05;70.03;;;34.30;;
3991;SDS011;2010;48.194;16.394;2023-02-17T00:22:35;71.07;;;34.97;;
3991;SDS011;2010;48.194;16.394;2023-02-17T00:25:05;64.93;;;34.00;;
3991;SDS011;2010;48.194;16.394;2023-02-17T00:27:39;69.23;;;34.17;;
3991;SDS011;2010;48.194;16.394;2023-02-17T00:30:09;67.40;;;35.37;;
3991;SDS011;2010;48.194;16.394;2023-02-17T00:32:41;62.87;;;33.10;;
3991;SDS011;2010;48.194;16.394;2023-02-17T00:35:24;65.93;;;32.67;;
3991;SDS011;2010;48.194;16.394;2023-02-17T00:37:59;79.23;;;34.57;;
3991;SDS011;2010;48.194;16.394;2023-02-17T00:40:32;58.77;;;31.30;;
3991;SDS011;2010;48.194;16.394;2023-02-17T00:43:09;68.13;;;32.77;;
3991;SDS011;2010;48.194;16.394;2023-02-17T00:45:40;60.67;;;32.67;;
3991;SDS011;2010;48.194;16.394;2023-02-17T00:48:09;52.53;;;28.80;;
3991;SDS011;2010;48.194;16.394;2023-02-17T00:50:38;59.10;;;30.60;;
3991;SDS011;2010;48.194;16.394;2023-02-17T00:53:09;37.10;;;21.13;;
3991;SDS011;2010;48.194;16.394;2023-02-17T00:55:47;32.20;;;16.90;;
3991;SDS011;2010;48.194;16.394;2023-02-17T00:58:32;26.60;;;14.53;;
3991;SDS011;2010;48.194;16.394;2023-02-17T01:01:02;29.17;;;15.53;;
3991;SDS011;2010;48.194;16.394;2023-02-17T01:03:40;29.37;;;15.37;;
3991;SDS011;2010;48.194;16.394;2023-02-17T01:06:09;27.17;;;14.50;;
3991;SDS011;2010;48.194;16.394;2023-02-17T01:08:55;25.33;;;14.33;;
3991;SDS011;2010;48.194;16.394;2023-02-17T01:11:32;28.77;;;16.57;;
3991;SDS011;2010;48.194;16.394;2023-02-17T01:14:16;33.60;;;18.10;;
3991;SDS011;2010;48.194;16.394;2023-02-17T01:16:47;33.77;;;18.87;;
3991;SDS011;2010;48.194;16.394;2023-02-17T01:19:17;38.40;;;20.43;;
3991;SDS011;2010;48.194;16.394;2023-02-17T01:21:48;35.20;;;22.30;;
3991;SDS011;2010;48.194;16.394;2023-02-17T01:24:20;39.73;;;22.40;;
3991;SDS011;2010;48.194;16.394;2023-02-17T01:26:51;42.13;;;23.90;;
3991;SDS011;2010;48.194;16.394;2023-02-17T01:29:26;46.47;;;24.93;;
3991;SDS011;2010;48.194;16.394;2023-02-17T01:31:55;45.73;;;24.93;;
3991;SDS011;2010;48.194;16.394;2023-02-17T01:34:29;44.40;;;25.20;;
3991;SDS011;2010;48.194;16.394;2023-02-17T01:37:07;44.07;;;24.57;;
3991;SDS011;2010;48.194;16.394;2023-02-17T01:39:36;51.07;;;25.20;;
3991;SDS011;2010;48.194;16.394;2023-02-17T01:42:13;51.47;;;29.30;;
3991;SDS011;2010;48.194;16.394;2023-02-17T01:47:58;57.83;;;30.17;;
3991;SDS011;2010;48.194;16.394;2023-02-17T01:50:41;59.20;;;31.33;;
3991;SDS011;2010;48.194;16.394;2023-02-17T01:53:18;59.27;;;30.90;;
3991;SDS011;2010;48.194;16.394;2023-02-17T01:55:59;61.00;;;32.77;;
3991;SDS011;2010;48.194;16.394;2023-02-17T01:58:42;62.97;;;32.10;;
3991;SDS011;2010;48.194;16.394;2023-02-17T02:01:12;57.00;;;31.40;;
3991;SDS011;2010;48.194;16.394;2023-02-17T02:03:43;66.93;;;33.70;;
3991;SDS011;2010;48.194;16.394;2023-02-17T02:06:25;60.77;;;30.70;;
3991;SDS011;2010;48.194;16.394;2023-02-17T02:09:00;56.63;;;30.87;;
3991;SDS011;2010;48.194;16.394;2023-02-17T02:11:32;58.77;;;31.60;;
3991;SDS011;2010;48.194;16.394;2023-02-17T02:14:01;59.17;;;32.43;;
3991;SDS011;2010;48.194;16.394;2023-02-17T02:16:40;61.87;;;31.80;;
3991;SDS011;2010;48.194;16.394;2023-02-17T02:19:23;57.83;;;30.40;;
3991;SDS011;2010;48.194;16.394;2023-02-17T02:22:24;59.13;;;32.10;;
3991;SDS011;2010;48.194;16.394;2023-02-17T02:25:31;62.30;;;33.17;;
3991;SDS011;2010;48.194;16.394;2023-02-17T02:28:27;71.67;;;32.57;;
3991;SDS011;2010;48.194;16.394;2023-02-17T02:31:11;61.17;;;32.10;;
3991;SDS011;2010;48.194;16.394;2023-02-17T02:33:59;60.70;;;32.43;;
3991;SDS011;2010;48.194;16.394;2023-02-17T02:36:31;63.87;;;32.70;;
3991;SDS011;2010;48.194;16.394;2023-02-17T02:39:06;62.33;;;32.03;;
3991;SDS011;2010;48.194;16.394;2023-02-17T02:41:40;71.87;;;34.90;;
3991;SDS011;2010;48.194;16.394;2023-02-17T02:44:21;63.23;;;32.63;;
3991;SDS011;2010;48.194;16.394;2023-02-17T02:46:59;67.23;;;32.43;;
3991;SDS011;2010;48.194;16.394;2023-02-17T02:49:30;68.77;;;34.37;;
3991;SDS011;2010;48.194;16.394;2023-02-17T02:52:11;80.00;;;36.43;;
3991;SDS011;2010;48.194;16.394;2023-02-17T02:54:54;67.50;;;33.60;;
3991;SDS011;2010;48.194;16.394;2023-02-17T02:57:35;61.03;;;33.00;;
3991;SDS011;2010;48.194;16.394;2023-02-17T03:00:10;63.70;;;32.97;;
3991;SDS011;2010;48.194;16.394;2023-02-17T03:02:50;62.57;;;32.10;;
3991;SDS011;2010;48.194;16.394;2023-02-17T03:05:40;68.23;;;33.03;;
3991;SDS011;2010;48.194;16.394;2023-02-17T03:08:15;63.47;;;32.97;;
3991;SDS011;2010;48.194;16.394;2023-02-17T03:10:50;58.90;;;32.70;;
3991;SDS011;2010;48.194;16.394;2023-02-17T03:13:24;67.93;;;34.30;;
3991;SDS011;2010;48.194;16.394;2023-02-17T03:15:57;66.33;;;33.47;;
3991;SDS011;2010;48.194;16.394;2023-02-17T03:18:30;65.40;;;32.40;;
3991;SDS011;2010;48.194;16.394;2023-02-17T03:21:03;62.73;;;32.93;;
3991;SDS011;2010;48.194;16.394;2023-02-17T03:23:45;66.27;;;32.17;;
3991;SDS011;2010;48.194;16.394;2023-02-17T03:26:15;62.97;;;32.27;;
3991;SDS011;2010;48.194;16.394;2023-02-17T03:28:49;59.37;;;31.17;;
3991;SDS011;2010;48.194;16.394;2023-02-17T03:31:20;59.30;;;30.90;;
3991;SDS011;2010;48.194;16.394;2023-02-17T03:33:51;57.20;;;31.63;;
3991;SDS011;2010;48.194;16.394;2023-02-17T03:36:27;60.33;;;32.00;;
3991;SDS011;2010;48.194;16.394;2023-02-17T03:39:05;52.93;;;29.10;;
3991;SDS011;2010;48.194;16.394;2023-02-17T03:41:41;61.90;;;30.90;;
3991;SDS011;2010;48.194;16.394;2023-02-17T03:44:10;56.53;;;30.23;;
3991;SDS011;2010;48.194;16.394;2023-02-17T03:46:39;48.20;;;27.53;;
3991;SDS011;2010;48.194;16.394;2023-02-17T03:49:08;55.90;;;29.80;;
3991;SDS011;2010;48.194;16.394;2023-02-17T03:51:43;55.87;;;29.30;;
3991;SDS011;2010;48.194;16.394;2023-02-17T03:54:15;52.77;;;28.60;;
3991;SDS011;2010;48.194;16.394;2023-02-17T03:56:46;53.27;;;29.03;;
3991;SDS011;2010;48.194;16.394;2023-02-17T03:59:17;55.50;;;29.73;;
3991;SDS011;2010;48.194;16.394;2023-02-17T04:01:59;53.47;;;29.07;;
3991;SDS011;2010;48.194;16.394;2023-02-17T04:04:28;53.40;;;28.50;;
3991;SDS011;2010;48.194;16.394;2023-02-17T04:06:59;52.20;;;29.37;;
3991;SDS011;2010;48.194;16.394;2023-02-17T04:09:29;51.87;;;28.80;;
3991;SDS011;2010;48.194;16.394;2023-02-17T04:11:58;54.30;;;29.47;;
3991;SDS011;2010;48.194;16.394;2023-02-17T04:14:30;53.13;;;30.73;;
3991;SDS011;2010;48.194;16.394;2023-02-17T04:17:02;51.23;;;28.00;;
3991;SDS011;2010;48.194;16.394;2023-02-17T04:19:31;51.10;;;29.23;;
3991;SDS011;2010;48.194;16.394;2023-02-17T04:22:17;55.93;;;29.40;;
3991;SDS011;2010;48.194;16.394;2023-02-17T04:24:49;54.17;;;29.73;;
3991;SDS011;2010;48.194;16.394;2023-02-17T04:27:20;56.27;;;30.77;;
3991;SDS011;2010;48.194;16.394;2023-02-17T04:29:53;52.80;;;29.70;;
3991;SDS011;2010;48.194;16.394;2023-02-17T04:32:26;55.63;;;31.07;;
3991;SDS011;2010;48.194;16.394;2023-02-17T04:35:01;56.57;;;29.77;;
3991;SDS011;2010;48.194;16.394;2023-02-17T04:37:34;60.43;;;30.90;;
3991;SDS011;2010;48.194;16.394;2023-02-17T04:40:04;53.43;;;29.17;;
3991;SDS011;2010;48.194;16.394;2023-02-17T04:42:36;52.87;;;29.40;;
3991;SDS011;2010;48.194;16.394;2023-02-17T04:45:06;64.37;;;29.70;;
3991;SDS011;2010;48.194;16.394;2023-02-17T04:47:38;57.70;;;28.50;;
3991;SDS011;2010;48.194;16.394;2023-02-17T04:50:13;50.00;;;27.40;;
3991;SDS011;2010;48.194;16.394;2023-02-17T04:52:51;54.73;;;29.37;;
3991;SDS011;2010;48.194;16.394;2023-02-17T04:55:23;51.73;;;29.40;;
3991;SDS011;2010;48.194;16.394;2023-02-17T04:57:54;53.37;;;28.70;;
3991;SDS011;2010;48.194;16.394;2023-02-17T05:00:28;51.17;;;28.50;;
3991;SDS011;2010;48.194;16.394;2023-02-17T05:03:00;54.87;;;29.47;;
3991;SDS011;2010;48.194;16.394;2023-02-17T05:05:32;51.80;;;28.70;;
3991;SDS011;2010;48.194;16.394;2023-02-17T05:08:04;54.20;;;28.60;;
3991;SDS011;2010;48.194;16.394;2023-02-17T05:10:35;51.83;;;28.90;;
3991;SDS011;2010;48.194;16.394;2023-02-17T05:13:04;51.03;;;29.40;;
3991;SDS011;2010;48.194;16.394;2023-02-17T05:15:36;48.50;;;27.83;;
3991;SDS011;2010;48.194;16.394;2023-02-17T05:18:13;56.13;;;29.90;;
3991;SDS011;2010;48.194;16.394;2023-02-17T05:20:43;48.67;;;27.50;;
3991;SDS011;2010;48.194;16.394;2023-02-17T05:23:14;53.93;;;28.77;;
3991;SDS011;2010;48.194;16.394;2023-02-17T05:25:44;53.27;;;27.23;;
3991;SDS011;2010;48.194;16.394;2023-02-17T05:28:22;46.43;;;25.67;;
3991;SDS011;2010;48.194;16.394;2023-02-17T05:30:54;41.77;;;23.20;;
3991;SDS011;2010;48.194;16.394;2023-02-17T05:33:30;40.03;;;21.20;;
3991;SDS011;2010;48.194;16.394;2023-02-17T05:36:00;19.13;;;11.63;;
3991;SDS011;2010;48.194;16.394;2023-02-17T05:38:39;22.50;;;10.80;;
3991;SDS011;2010;48.194;16.394;2023-02-17T05:41:08;16.87;;;8.30;;
3991;SDS011;2010;48.194;16.394;2023-02-17T05:43:37;15.90;;;8.90;;
3991;SDS011;2010;48.194;16.394;2023-02-17T05:46:17;19.10;;;8.63;;
3991;SDS011;2010;48.194;16.394;2023-02-17T05:49:01;13.73;;;7.57;;
3991;SDS011;2010;48.194;16.394;2023-02-17T05:51:34;14.00;;;8.20;;
3991;SDS011;2010;48.194;16.394;2023-02-17T05:54:08;17.37;;;9.70;;
3991;SDS011;2010;48.194;16.394;2023-02-17T05:56:38;12.93;;;7.10;;
3991;SDS011;2010;48.194;16.394;2023-02-17T05:59:09;12.60;;;6.53;;
3991;SDS011;2010;48.194;16.394;2023-02-17T06:01:47;8.87;;;6.67;;
3991;SDS011;2010;48.194;16.394;2023-02-17T06:04:18;19.50;;;7.50;;
3991;SDS011;2010;48.194;16.394;2023-02-17T06:06:50;10.87;;;5.63;;
3991;SDS011;2010;48.194;16.394;2023-02-17T06:09:31;11.60;;;6.73;;
3991;SDS011;2010;48.194;16.394;2023-02-17T06:12:02;12.90;;;5.63;;
3991;SDS011;2010;48.194;16.394;2023-02-17T06:14:47;15.40;;;7.43;;
3991;SDS011;2010;48.194;16.394;2023-02-17T06:17:18;11.77;;;6.63;;
3991;SDS011;2010;48.194;16.394;2023-02-17T06:19:50;13.17;;;6.40;;
3991;SDS011;2010;48.194;16.394;2023-02-17T06:22:19;10.40;;;6.23;;
3991;SDS011;2010;48.194;16.394;2023-02-17T06:24:54;11.47;;;6.03;;
3991;SDS011;2010;48.194;16.394;2023-02-17T06:27:24;9.37;;;6.00;;
3991;SDS011;2010;48.194;16.394;2023-02-17T06:30:10;11.50;;;5.70;;
3991;SDS011;2010;48.194;16.394;2023-02-17T06:32:50;14.23;;;6.77;;
3991;SDS011;2010;48.194;16.394;2023-02-17T06:35:20;12.23;;;6.50;;
3991;SDS011;2010;48.194;16.394;2023-02-17T06:37:50;10.57;;;5.77;;
3991;SDS011;2010;48.194;16.394;2023-02-17T06:40:26;11.17;;;5.67;;
3991;SDS011;2010;48.194;16.394;2023-02-17T06:42:57;10.27;;;6.83;;
3991;SDS011;2010;48.194;16.394;2023-02-17T06:45:35;12.20;;;6.77;;
3991;SDS011;2010;48.194;16.394;2023-02-17T06:48:03;12.80;;;5.90;;
3991;SDS011;2010;48.194;16.394;2023-02-17T06:50:33;8.57;;;6.60;;
3991;SDS011;2010;48.194;16.394;2023-02-17T06:53:09;13.10;;;6.30;;
3991;SDS011;2010;48.194;16.394;2023-02-17T06:55:43;8.97;;;6.10;;
3991;SDS011;2010;48.194;16.394;2023-02-17T06:58:14;10.60;;;6.03;;
3991;SDS011;2010;48.194;16.394;2023-02-17T07:00:55;13.47;;;6.80;;
3991;SDS011;2010;48.194;16.394;2023-02-17T07:03:29;11.20;;;6.33;;
3991;SDS011;2010;48.194;16.394;2023-02-17T07:06:08;10.50;;;6.37;;
3991;SDS011;2010;48.194;16.394;2023-02-17T07:08:41;12.10;;;6.97;;
3991;SDS011;2010;48.194;16.394;2023-02-17T07:11:34;9.50;;;6.43;;
3991;SDS011;2010;48.194;16.394;2023-02-17T07:14:05;10.17;;;5.90;;
3991;SDS011;2010;48.194;16.394;2023-02-17T07:16:38;14.93;;;6.80;;
3991;SDS011;2010;48.194;16.394;2023-02-17T07:19:07;10.80;;;6.73;;
3991;SDS011;2010;48.194;16.394;2023-02-17T07:21:38;13.67;;;7.00;;
3991;SDS011;2010;48.194;16.394;2023-02-17T07:24:09;9.33;;;6.80;;
3991;SDS011;2010;48.194;16.394;2023-02-17T07:26:48;9.53;;;6.93;;
3991;SDS011;2010;48.194;16.394;2023-02-17T07:29:24;15.53;;;7.83;;
3991;SDS011;2010;48.194;16.394;2023-02-17T07:31:57;10.23;;;7.20;;
3991;SDS011;2010;48.194;16.394;2023-02-17T07:34:27;12.70;;;7.77;;
3991;SDS011;2010;48.194;16.394;2023-02-17T07:37:08;22.40;;;8.40;;
3991;SDS011;2010;48.194;16.394;2023-02-17T07:39:39;11.73;;;8.10;;
3991;SDS011;2010;48.194;16.394;2023-02-17T07:42:28;14.63;;;7.50;;
3991;SDS011;2010;48.194;16.394;2023-02-17T07:44:59;10.33;;;7.17;;
3991;SDS011;2010;48.194;16.394;2023-02-17T07:47:31;13.00;;;7.40;;
3991;SDS011;2010;48.194;16.394;2023-02-17T07:50:02;14.37;;;8.13;;
3991;SDS011;2010;48.194;16.394;2023-02-17T07:52:32;13.00;;;7.10;;
3991;SDS011;2010;48.194;16.394;2023-02-17T07:55:05;28.40;;;17.43;;
3991;SDS011;2010;48.194;16.394;2023-02-17T07:57:46;17.53;;;11.87;;
3991;SDS011;2010;48.194;16.394;2023-02-17T08:00:16;18.60;;;9.90;;
3991;SDS011;2010;48.194;16.394;2023-02-17T08:02:58;24.13;;;9.67;;
3991;SDS011;2010;48.194;16.394;2023-02-17T08:05:29;18.00;;;9.07;;
3991;SDS011;2010;48.194;16.394;2023-02-17T08:08:06;21.43;;;9.07;;
3991;SDS011;2010;48.194;16.394;2023-02-17T08:10:54;14.40;;;8.87;;
3991;SDS011;2010;48.194;16.394;2023-02-17T08:13:50;21.10;;;8.83;;
3991;SDS011;2010;48.194;16.394;2023-02-17T08:16:22;25.53;;;9.33;;
3991;SDS011;2010;48.194;16.394;2023-02-17T08:18:56;25.17;;;9.40;;
3991;SDS011;2010;48.194;16.394;2023-02-17T08:21:26;20.67;;;9.80;;
3991;SDS011;2010;48.194;16.394;2023-02-17T08:23:54;22.37;;;9.37;;
3991;SDS011;2010;48.194;16.394;2023-02-17T08:26:30;22.50;;;9.37;;
3991;SDS011;2010;48.194;16.394;2023-02-17T08:29:05;15.93;;;8.47;;
3991;SDS011;2010;48.194;16.394;2023-02-17T08:31:35;11.87;;;7.87;;
3991;SDS011;2010;48.194;16.394;2023-02-17T08:34:05;16.70;;;8.60;;
3991;SDS011;2010;48.194;16.394;2023-02-17T08:36:44;12.63;;;7.27;;
3991;SDS011;2010;48.194;16.394;2023-02-17T08:39:18;14.70;;;8.00;;
3991;SDS011;2010;48.194;16.394;2023-02-17T08:41:50;24.63;;;8.57;;
3991;SDS011;2010;48.194;16.394;2023-02-17T08:44:22;28.90;;;8.40;;
3991;SDS011;2010;48.194;16.394;2023-02-17T08:46:52;17.37;;;10.13;;
3991;SDS011;2010;48.194;16.394;2023-02-17T08:49:23;16.77;;;9.13;;
3991;SDS011;2010;48.194;16.394;2023-02-17T08:52:00;12.50;;;7.00;;
3991;SDS011;2010;48.194;16.394;2023-02-17T08:54:31;7.20;;;4.70;;
3991;SDS011;2010;48.194;16.394;2023-02-17T08:57:07;16.30;;;5.57;;
3991;SDS011;2010;48.194;16.394;2023-02-17T08:59:47;9.50;;;4.33;;
3991;SDS011;2010;48.194;16.394;2023-02-17T09:02:22;11.50;;;6.10;;
3991;SDS011;2010;48.194;16.394;2023-02-17T09:04:53;7.93;;;4.47;;
3991;SDS011;2010;48.194;16.394;2023-02-17T09:07:22;8.50;;;5.40;;
3991;SDS011;2010;48.194;16.394;2023-02-17T09:09:54;12.03;;;5.20;;
3991;SDS011;2010;48.194;16.394;2023-02-17T09:12:30;15.50;;;8.20;;
3991;SDS011;2010;48.194;16.394;2023-02-17T09:15:05;14.23;;;6.70;;
3991;SDS011;2010;48.194;16.394;2023-02-17T09:17:37;8.60;;;6.27;;
3991;SDS011;2010;48.194;16.394;2023-02-17T09:20:08;9.73;;;4.77;;
3991;SDS011;2010;48.194;16.394;2023-02-17T09:22:51;29.80;;;11.40;;
3991;SDS011;2010;48.194;16.394;2023-02-17T09:25:23;12.80;;;5.90;;
3991;SDS011;2010;48.194;16.394;2023-02-17T09:27:59;19.90;;;9.33;;
3991;SDS011;2010;48.194;16.394;2023-02-17T09:30:33;16.30;;;5.47;;
3991;SDS011;2010;48.194;16.394;2023-02-17T09:33:05;9.83;;;4.60;;
3991;SDS011;2010;48.194;16.394;2023-02-17T09:35:37;15.30;;;5.63;;
3991;SDS011;2010;48.194;16.394;2023-02-17T09:38:05;22.30;;;5.67;;
3991;SDS011;2010;48.194;16.394;2023-02-17T09:40:37;11.80;;;4.77;;
3991;SDS011;2010;48.194;16.394;2023-02-17T09:43:10;9.97;;;5.03;;
3991;SDS011;2010;48.194;16.394;2023-02-17T09:46:01;7.40;;;4.37;;
3991;SDS011;2010;48.194;16.394;2023-02-17T09:48:35;9.53;;;4.80;;
3991;SDS011;2010;48.194;16.394;2023-02-17T09:51:07;10.50;;;4.93;;
3991;SDS011;2010;48.194;16.394;2023-02-17T09:53:45;10.40;;;4.60;;
3991;SDS011;2010;48.194;16.394;2023-02-17T09:56:23;11.97;;;4.57;;
3991;SDS011;2010;48.194;16.394;2023-02-17T09:59:00;11.23;;;5.37;;
3991;SDS011;2010;48.194;16.394;2023-02-17T10:01:48;10.33;;;4.37;;
3991;SDS011;2010;48.194;16.394;2023-02-17T10:04:21;14.47;;;5.40;;
3991;SDS011;2010;48.194;16.394;2023-02-17T10:07:06;7.97;;;4.30;;
3991;SDS011;2010;48.194;16.394;2023-02-17T10:09:51;6.90;;;3.60;;
3991;SDS011;2010;48.194;16.394;2023-02-17T10:12:24;10.73;;;3.93;;
3991;SDS011;2010;48.194;16.394;2023-02-17T10:15:06;11.00;;;4.50;;
3991;SDS011;2010;48.194;16.394;2023-02-17T10:17:55;14.03;;;3.60;;
3991;SDS011;2010;48.194;16.394;2023-02-17T10:20:30;9.13;;;4.40;;
3991;SDS011;2010;48.194;16.394;2023-02-17T10:23:03;10.80;;;4.80;;
3991;SDS011;2010;48.194;16.394;2023-02-17T10:28:45;8.50;;;4.77;;
3991;SDS011;2010;48.194;16.394;2023-02-17T10:31:20;7.77;;;4.47;;
3991;SDS011;2010;48.194;16.394;2023-02-17T10:34:40;9.30;;;4.10;;
3991;SDS011;2010;48.194;16.394;2023-02-17T10:37:17;7.90;;;4.43;;
3991;SDS011;2010;48.194;16.394;2023-02-17T10:39:54;8.47;;;4.53;;
3991;SDS011;2010;48.194;16.394;2023-02-17T10:42:28;15.73;;;5.07;;
3991;SDS011;2010;48.194;16.394;2023-02-17T10:45:12;7.27;;;4.70;;
3991;SDS011;2010;48.194;16.394;2023-02-17T10:47:54;7.90;;;4.87;;
3991;SDS011;2010;48.194;16.394;2023-02-17T10:50:31;6.53;;;4.40;;
3991;SDS011;2010;48.194;16.394;2023-02-17T10:52:59;6.80;;;3.90;;
3991;SDS011;2010;48.194;16.394;2023-02-17T10:55:32;11.20;;;4.70;;
3991;SDS011;2010;48.194;16.394;2023-02-17T10:58:12;4.80;;;4.23;;
3991;SDS011;2010;48.194;16.394;2023-02-17T11:00:52;11.10;;;4.30;;
3991;SDS011;2010;48.194;16.394;2023-02-17T11:03:24;9.40;;;3.73;;
3991;SDS011;2010;48.194;16.394;2023-02-17T11:06:00;5.40;;;3.73;;
3991;SDS011;2010;48.194;16.394;2023-02-17T11:08:36;6.77;;;3.87;;
3991;SDS011;2010;48.194;16.394;2023-02-17T11:11:13;8.27;;;3.00;;
3991;SDS011;2010;48.194;16.394;2023-02-17T11:13:57;6.37;;;3.53;;
3991;SDS011;2010;48.194;16.394;2023-02-17T11:16:32;5.77;;;3.97;;
3991;SDS011;2010;48.194;16.394;2023-02-17T11:19:05;9.37;;;4.40;;
3991;SDS011;2010;48.194;16.394;2023-02-17T11:21:41;5.03;;;3.53;;
3991;SDS011;2010;48.194;16.394;2023-02-17T11:24:13;7.23;;;3.20;;
3991;SDS011;2010;48.194;16.394;2023-02-17T11:26:53;7.30;;;4.40;;
3991;SDS011;2010;48.194;16.394;2023-02-17T11:29:26;8.93;;;3.53;;
3991;SDS011;2010;48.194;16.394;2023-02-17T11:32:04;8.40;;;3.67;;
3991;SDS011;2010;48.194;16.394;2023-02-17T11:34:38;6.97;;;3.57;;
3991;SDS011;2010;48.194;16.394;2023-02-17T11:37:32;13.90;;;3.80;;
3991;SDS011;2010;48.194;16.394;2023-02-17T11:40:24;7.80;;;3.30;;
3991;SDS011;2010;48.194;16.394;2023-02-17T11:42:57;9.27;;;3.27;;
3991;SDS011;2010;48.194;16.394;2023-02-17T11:45:34;8.73;;;3.57;;
3991;SDS011;2010;48.194;16.394;2023-02-17T11:48:19;14.17;;;3.97;;
3991;SDS011;2010;48.194;16.394;2023-02-17T11:51:02;5.47;;;3.60;;
3991;SDS011;2010;48.194;16.394;2023-02-17T11:53:43;4.40;;;3.43;;
3991;SDS011;2010;48.194;16.394;2023-02-17T11:56:21;8.23;;;2.90;;
3991;SDS011;2010;48.194;16.394;2023-02-17T12:04:52;5.60;;;3.13;;
3991;SDS011;2010;48.194;16.394;2023-02-17T12:07:35;10.07;;;3.60;;
3991;SDS011;2010;48.194;16.394;2023-02-17T12:10:28;6.60;;;3.53;;
3991;SDS011;2010;48.194;16.394;2023-02-17T12:13:12;4.90;;;3.00;;
3991;SDS011;2010;48.194;16.394;2023-02-17T12:15:55;3.60;;;2.77;;
3991;SDS011;2010;48.194;16.394;2023-02-17T12:18:48;6.37;;;3.27;;
3991;SDS011;2010;48.194;16.394;2023-02-17T12:27:27;6.60;;;3.47;;
3991;SDS011;2010;48.194;16.394;2023-02-17T12:30:22;5.90;;;3.50;;
3991;SDS011;2010;48.194;16.394;2023-02-17T12:36:03;13.30;;;3.37;;
3991;SDS011;2010;48.194;16.394;2023-02-17T12:38:37;6.00;;;3.50;;
3991;SDS011;2010;48.194;16.394;2023-02-17T12:41:10;4.83;;;3.07;;
3991;SDS011;2010;48.194;16.394;2023-02-17T12:46:36;7.33;;;3.90;;
3991;SDS011;2010;48.194;16.394;2023-02-17T12:49:22;5.73;;;3.70;;
3991;SDS011;2010;48.194;16.394;2023-02-17T12:51:57;5.83;;;3.73;;
3991;SDS011;2010;48.194;16.394;2023-02-17T12:54:45;9.40;;;5.00;;
3991;SDS011;2010;48.194;16.394;2023-02-17T12:57:22;8.17;;;3.23;;
3991;SDS011;2010;48.194;16.394;2023-02-17T13:00:01;6.37;;;3.70;;
3991;SDS011;2010;48.194;16.394;2023-02-17T13:02:40;8.90;;;4.00;;
3991;SDS011;2010;48.194;16.394;2023-02-17T13:05:27;6.33;;;3.00;;
3991;SDS011;2010;48.194;16.394;2023-02-17T13:08:03;7.43;;;3.30;;
3991;SDS011;2010;48.194;16.394;2023-02-17T13:10:34;5.00;;;2.90;;
3991;SDS011;2010;48.194;16.394;2023-02-17T13:13:08;6.07;;;2.77;;
3991;SDS011;2010;48.194;16.394;2023-02-17T13:15:43;8.83;;;3.30;;
3991;SDS011;2010;48.194;16.394;2023-02-17T13:18:27;5.23;;;3.47;;
3991;SDS011;2010;48.194;16.394;2023-02-17T13:21:02;7.50;;;3.50;;
3991;SDS011;2010;48.194;16.394;2023-02-17T13:23:44;3.50;;;2.97;;
3991;SDS011;2010;48.194;16.394;2023-02-17T13:26:39;7.00;;;3.00;;
3991;SDS011;2010;48.194;16.394;2023-02-17T13:29:18;4.13;;;2.70;;
3991;SDS011;2010;48.194;16.394;2023-02-17T13:32:06;10.40;;;4.37;;
3991;SDS011;2010;48.194;16.394;2023-02-17T13:34:38;3.43;;;2.50;;
3991;SDS011;2010;48.194;16.394;2023-02-17T13:37:18;3.70;;;2.83;;
3991;SDS011;2010;48.194;16.394;2023-02-17T13:39:55;6.77;;;2.90;;
3991;SDS011;2010;48.194;16.394;2023-02-17T13:42:34;7.20;;;2.13;;
3991;SDS011;2010;48.194;16.394;2023-02-17T13:45:17;7.47;;;3.30;;
3991;SDS011;2010;48.194;16.394;2023-02-17T13:47:56;7.57;;;2.67;;
3991;SDS011;2010;48.194;16.394;2023-02-17T13:50:28;6.03;;;2.97;;
3991;SDS011;2010;48.194;16.394;2023-02-17T13:53:18;8.90;;;2.17;;
3991;SDS011;2010;48.194;16.394;2023-02-17T13:55:56;9.20;;;3.30;;
3991;SDS011;2010;48.194;16.394;2023-02-17T13:58:34;5.37;;;2.80;;
3991;SDS011;2010;48.194;16.394;2023-02-17T14:01:13;4.30;;;2.50;;
3991;SDS011;2010;48.194;16.394;2023-02-17T14:03:49;5.80;;;2.63;;
3991;SDS011;2010;48.194;16.394;2023-02-17T14:06:26;4.93;;;2.17;;
3991;SDS011;2010;48.194;16.394;2023-02-17T14:09:09;4.97;;;2.70;;
3991;SDS011;2010;48.194;16.394;2023-02-17T14:11:39;4.83;;;2.53;;
3991;SDS011;2010;48.194;16.394;2023-02-17T14:14:11;3.20;;;2.20;;
3991;SDS011;2010;48.194;16.394;2023-02-17T14:16:42;4.20;;;2.20;;
3991;SDS011;2010;48.194;16.394;2023-02-17T14:19:14;4.53;;;2.10;;
3991;SDS011;2010;48.194;16.394;2023-02-17T14:21:57;2.77;;;1.97;;
3991;SDS011;2010;48.194;16.394;2023-02-17T14:24:29;3.67;;;1.80;;
3991;SDS011;2010;48.194;16.394;2023-02-17T14:27:04;4.63;;;2.37;;
3991;SDS011;2010;48.194;16.394;2023-02-17T14:29:43;4.27;;;2.00;;
3991;SDS011;2010;48.194;16.394;2023-02-17T14:32:27;7.37;;;2.20;;
3991;SDS011;2010;48.194;16.394;2023-02-17T14:35:18;5.80;;;1.60;;
3991;SDS011;2010;48.194;16.394;2023-02-17T14:37:50;5.27;;;1.83;;
3991;SDS011;2010;48.194;16.394;2023-02-17T14:40:28;2.20;;;1.43;;
3991;SDS011;2010;48.194;16.394;2023-02-17T14:43:07;5.77;;;3.23;;
3991;SDS011;2010;48.194;16.394;2023-02-17T14:45:38;5.20;;;1.90;;
3991;SDS011;2010;48.194;16.394;2023-02-17T14:48:07;2.53;;;1.63;;
3991;SDS011;2010;48.194;16.394;2023-02-17T14:50:44;4.37;;;2.20;;
3991;SDS011;2010;48.194;16.394;2023-02-17T14:53:16;5.50;;;1.80;;
3991;SDS011;2010;48.194;16.394;2023-02-17T14:55:58;5.13;;;2.60;;
3991;SDS011;2010;48.194;16.394;2023-02-17T14:58:32;4.77;;;2.20;;
3991;SDS011;2010;48.194;16.394;2023-02-17T15:01:01;8.57;;;2.40;;
3991;SDS011;2010;48.194;16.394;2023-02-17T15:03:34;7.23;;;2.43;;
3991;SDS011;2010;48.194;16.394;2023-02-17T15:06:09;4.93;;;2.70;;
3991;SDS011;2010;48.194;16.394;2023-02-17T15:08:44;5.10;;;2.53;;
3991;SDS011;2010;48.194;16.394;2023-02-17T15:11:27;4.53;;;1.90;;
3991;SDS011;2010;48.194;16.394;2023-02-17T15:14:03;6.80;;;2.13;;
3991;SDS011;2010;48.194;16.394;2023-02-17T15:16:34;2.90;;;2.00;;
3991;SDS011;2010;48.194;16.394;2023-02-17T15:19:05;9.67;;;2.03;;
3991;SDS011;2010;48.194;16.394;2023-02-17T15:21:39;7.33;;;2.83;;
3991;SDS011;2010;48.194;16.394;2023-02-17T15:24:14;5.63;;;2.03;;
3991;SDS011;2010;48.194;16.394;2023-02-17T15:26:48;2.90;;;2.07;;
3991;SDS011;2010;48.194;16.394;2023-02-17T15:29:18;9.23;;;2.37;;
3991;SDS011;2010;48.194;16.394;2023-02-17T15:31:58;3.63;;;2.00;;
3991;SDS011;2010;48.194;16.394;2023-02-17T15:34:33;3.67;;;2.17;;
3991;SDS011;2010;48.194;16.394;2023-02-17T15:37:24;3.93;;;2.00;;
3991;SDS011;2010;48.194;16.394;2023-02-17T15:39:53;5.93;;;2.37;;
3991;SDS011;2010;48.194;16.394;2023-02-17T15:42:26;5.03;;;2.43;;
3991;SDS011;2010;48.194;16.394;2023-02-17T15:44:59;3.93;;;3.10;;
3991;SDS011;2010;48.194;16.394;2023-02-17T15:47:33;4.93;;;2.67;;
3991;SDS011;2010;48.194;16.394;2023-02-17T15:50:11;8.87;;;3.13;;
3991;SDS011;2010;48.194;16.394;2023-02-17T15:55:52;10.13;;;7.33;;
3991;SDS011;2010;48.194;16.394;2023-02-17T15:58:29;9.90;;;7.40;;
3991;SDS011;2010;48.194;16.394;2023-02-17T16:01:01;8.53;;;2.90;;
3991;SDS011;2010;48.194;16.394;2023-02-17T16:03:41;4.80;;;2.87;;
3991;SDS011;2010;48.194;16.394;2023-02-17T16:06:10;7.47;;;2.50;;
3991;SDS011;2010;48.194;16.394;2023-02-17T16:08:45;5.43;;;2.83;;